createdAt,value
2023-02-06T00:00:42.422Z,12.80
2023-02-06T00:03:15.506Z,11.68
2023-02-06T00:06:00.043Z,11.15
2023-02-06T00:08:34.818Z,13.35
2023-02-06T00:11:10.347Z,12.55
2023-02-06T00:13:44.674Z,11.35
2023-02-06T00:16:24.057Z,10.82
2023-02-06T00:18:59.430Z,11.48
2023-02-06T00:21:33.007Z,13.35
2023-02-06T00:24:07.212Z,12.80
2023-02-06T00:26:41.078Z,13.28
2023-02-06T00:29:13.982Z,12.37
2023-02-06T00:31:47.002Z,14.03
2023-02-06T00:34:20.099Z,13.23
2023-02-06T00:36:54.177Z,14.73
2023-02-06T00:39:28.400Z,12.73
2023-02-06T00:42:01.246Z,11.90
2023-02-06T00:44:34.063Z,11.95
2023-02-06T00:47:07.060Z,13.43
2023-02-06T00:49:40.174Z,10.70
2023-02-06T00:52:13.049Z,9.95
2023-02-06T00:54:46.537Z,8.33
2023-02-06T00:57:19.499Z,9.23
2023-02-06T00:59:54.625Z,9.35
2023-02-06T01:02:27.644Z,9.08
2023-02-06T01:05:00.900Z,10.37
2023-02-06T01:07:37.004Z,10.35
2023-02-06T01:10:11.358Z,11.25
2023-02-06T01:12:44.893Z,12.15
2023-02-06T01:15:18.363Z,11.53
2023-02-06T01:17:51.657Z,11.75
2023-02-06T01:20:24.985Z,12.03
2023-02-06T01:22:57.980Z,13.00
2023-02-06T01:25:31.279Z,12.13
2023-02-06T01:28:05.230Z,11.33
2023-02-06T01:30:38.753Z,11.40
2023-02-06T01:33:12.620Z,11.12
2023-02-06T01:35:45.507Z,10.60
2023-02-06T01:38:18.845Z,9.88
2023-02-06T01:40:52.080Z,11.30
2023-02-06T01:43:25.145Z,10.65
2023-02-06T01:45:58.546Z,11.17
2023-02-06T01:48:38.472Z,13.18
2023-02-06T01:51:18.472Z,12.37
2023-02-06T01:53:55.584Z,12.85
2023-02-06T01:56:31.546Z,12.37
2023-02-06T01:59:05.749Z,12.82
2023-02-06T02:01:38.964Z,13.30
2023-02-06T02:04:16.453Z,14.83
2023-02-06T02:07:06.363Z,13.28
2023-02-06T02:09:39.433Z,12.80
2023-02-06T02:12:13.180Z,12.88
2023-02-06T02:14:49.629Z,13.40
2023-02-06T02:17:41.772Z,12.98
2023-02-06T02:20:53.000Z,13.43
2023-02-06T02:23:42.440Z,13.38
2023-02-06T02:26:32.585Z,12.35
2023-02-06T02:29:12.879Z,11.73
2023-02-06T02:32:02.558Z,12.98
2023-02-06T02:35:10.668Z,16.20
2023-02-06T02:38:03.399Z,13.08
2023-02-06T02:41:06.205Z,13.05
2023-02-06T02:44:01.013Z,14.15
2023-02-06T02:46:44.086Z,13.25
2023-02-06T02:49:23.380Z,13.30
2023-02-06T02:51:57.207Z,13.83
2023-02-06T02:54:30.189Z,13.30
2023-02-06T02:57:15.414Z,16.80
2023-02-06T02:59:49.733Z,14.70
2023-02-06T03:02:29.968Z,14.30
2023-02-06T03:05:09.592Z,13.98
2023-02-06T03:08:03.900Z,13.30
2023-02-06T03:10:44.121Z,13.15
2023-02-06T03:13:39.082Z,13.90
2023-02-06T03:16:49.054Z,14.47
2023-02-06T03:19:26.160Z,15.00
2023-02-06T03:21:59.654Z,17.32
2023-02-06T03:24:35.934Z,17.23
2023-02-06T03:27:12.873Z,16.45
2023-02-06T03:29:46.352Z,16.97
2023-02-06T03:32:37.911Z,19.80
2023-02-06T03:35:22.170Z,16.50
2023-02-06T03:37:55.438Z,16.40
2023-02-06T03:40:30.617Z,17.92
2023-02-06T03:43:05.779Z,16.87
2023-02-06T03:45:42.413Z,15.18
2023-02-06T03:48:22.663Z,17.52
2023-02-06T03:50:57.132Z,16.55
2023-02-06T03:53:31.174Z,19.82
2023-02-06T03:56:08.756Z,18.62
2023-02-06T03:58:42.280Z,18.12
2023-02-06T04:01:16.182Z,17.70
2023-02-06T04:03:49.690Z,17.27
2023-02-06T04:06:22.822Z,18.20
2023-02-06T04:08:55.829Z,17.77
2023-02-06T04:11:28.829Z,16.90
2023-02-06T04:14:02.566Z,16.57
2023-02-06T04:16:36.127Z,17.02
2023-02-06T04:19:08.953Z,17.15
2023-02-06T04:21:41.719Z,18.62
2023-02-06T04:24:15.093Z,17.35
2023-02-06T04:26:48.012Z,18.83
2023-02-06T04:29:21.050Z,20.08
2023-02-06T04:31:53.788Z,18.35
2023-02-06T04:34:26.630Z,17.87
2023-02-06T04:36:59.690Z,17.87
2023-02-06T04:39:32.758Z,19.93
2023-02-06T04:42:05.959Z,20.45
2023-02-06T04:44:39.165Z,19.52
2023-02-06T04:47:12.220Z,18.10
2023-02-06T04:49:44.950Z,17.80
2023-02-06T04:52:17.868Z,18.30
2023-02-06T04:54:51.111Z,18.77
2023-02-06T04:57:24.562Z,18.60
2023-02-06T04:59:57.455Z,18.92
2023-02-06T05:02:30.304Z,18.57
2023-02-06T05:05:03.279Z,18.17
2023-02-06T05:07:37.405Z,15.03
2023-02-06T05:10:11.708Z,18.65
2023-02-06T05:12:46.268Z,20.52
2023-02-06T05:15:19.585Z,20.60
2023-02-06T05:17:53.097Z,19.42
2023-02-06T05:20:26.178Z,18.17
2023-02-06T05:23:00.237Z,18.20
2023-02-06T05:25:33.561Z,17.37
2023-02-06T05:28:07.702Z,17.92
2023-02-06T05:30:41.016Z,16.42
2023-02-06T05:33:14.116Z,15.47
2023-02-06T05:35:47.279Z,17.17
2023-02-06T05:38:20.886Z,16.87
2023-02-06T05:40:54.126Z,17.48
2023-02-06T05:43:26.896Z,17.90
2023-02-06T05:46:00.128Z,16.55
2023-02-06T05:48:35.156Z,17.48
2023-02-06T05:51:08.205Z,19.07
2023-02-06T05:53:41.177Z,17.40
2023-02-06T05:56:14.117Z,16.65
2023-02-06T05:58:47.681Z,18.82
2023-02-06T06:01:20.498Z,19.80
2023-02-06T06:03:53.407Z,18.07
2023-02-06T06:06:26.196Z,18.02
2023-02-06T06:09:01.079Z,17.25
2023-02-06T06:11:34.265Z,15.18
2023-02-06T06:14:07.416Z,17.30
2023-02-06T06:16:42.162Z,16.48
2023-02-06T06:21:46.988Z,16.12
2023-02-06T06:24:20.741Z,15.65
2023-02-06T06:26:53.533Z,17.37
2023-02-06T06:29:27.485Z,17.05
2023-02-06T06:34:33.176Z,17.20
2023-02-06T06:37:06.769Z,16.27
2023-02-06T06:39:39.507Z,13.90
2023-02-06T06:42:12.308Z,16.93
2023-02-06T06:44:45.287Z,16.30
2023-02-06T06:47:18.368Z,15.30
2023-02-06T06:49:51.303Z,15.20
2023-02-06T06:52:25.747Z,14.85
2023-02-06T06:54:59.248Z,16.50
2023-02-06T06:57:35.481Z,17.70
2023-02-06T07:00:10.502Z,15.10
2023-02-06T07:02:43.624Z,16.90
2023-02-06T07:05:16.545Z,17.07
2023-02-06T07:07:50.221Z,16.32
2023-02-06T07:10:23.284Z,15.05
2023-02-06T07:12:56.962Z,16.97
2023-02-06T07:15:30.139Z,15.32
2023-02-06T07:18:03.722Z,16.73
2023-02-06T07:20:38.322Z,16.00
2023-02-06T07:23:11.792Z,14.07
2023-02-06T07:25:44.943Z,15.40
2023-02-06T07:28:18.074Z,14.73
2023-02-06T07:30:51.004Z,15.63
2023-02-06T07:33:24.046Z,14.90
2023-02-06T07:35:57.114Z,13.57
2023-02-06T07:38:30.374Z,13.55
2023-02-06T07:41:04.333Z,14.60
2023-02-06T07:43:39.711Z,13.35
2023-02-06T07:46:12.780Z,12.95
2023-02-06T07:48:45.760Z,12.23
2023-02-06T07:51:18.628Z,9.50
2023-02-06T07:53:51.441Z,10.30
2023-02-06T07:56:25.516Z,11.93
2023-02-06T07:58:58.394Z,8.68
2023-02-06T08:01:31.559Z,9.30
2023-02-06T08:04:04.790Z,10.60
2023-02-06T08:06:37.704Z,12.13
2023-02-06T08:09:19.457Z,12.53
2023-02-06T08:11:55.583Z,12.50
2023-02-06T08:14:28.993Z,11.95
2023-02-06T08:17:02.021Z,10.98
2023-02-06T08:19:34.998Z,9.80
2023-02-06T08:22:08.086Z,10.50
2023-02-06T08:24:41.094Z,12.30
2023-02-06T08:27:14.079Z,14.10
2023-02-06T08:29:47.704Z,14.10
2023-02-06T08:32:20.671Z,12.90
2023-02-06T08:34:53.944Z,15.03
2023-02-06T08:37:26.684Z,15.28
2023-02-06T08:39:59.679Z,13.32
2023-02-06T08:42:33.413Z,13.08
2023-02-06T08:45:06.627Z,13.38
2023-02-06T08:47:40.752Z,10.90
2023-02-06T08:50:13.932Z,13.58
2023-02-06T08:52:46.796Z,12.77
2023-02-06T08:55:20.268Z,15.32
2023-02-06T08:57:55.120Z,14.58
2023-02-06T09:00:28.220Z,14.53
2023-02-06T09:03:01.475Z,13.68
2023-02-06T09:05:34.976Z,13.55
2023-02-06T09:08:08.149Z,13.05
2023-02-06T09:10:41.497Z,13.78
2023-02-06T09:15:54.939Z,14.05
2023-02-06T09:18:27.503Z,16.55
2023-02-06T09:21:11.692Z,15.05
2023-02-06T09:23:48.308Z,14.23
2023-02-06T09:26:25.171Z,11.63
2023-02-06T09:29:00.683Z,10.53
2023-02-06T09:31:33.824Z,11.88
2023-02-06T09:34:08.673Z,10.90
2023-02-06T09:36:41.477Z,11.40
2023-02-06T09:39:14.332Z,11.50
2023-02-06T09:41:52.448Z,11.48
2023-02-06T09:44:44.221Z,11.95
2023-02-06T09:47:35.359Z,12.00
2023-02-06T09:50:46.030Z,14.53
2023-02-06T09:53:30.464Z,15.20
2023-02-06T09:56:36.064Z,17.92
2023-02-06T10:02:23.672Z,16.65
2023-02-06T10:05:23.269Z,15.35
2023-02-06T10:08:20.771Z,15.60
2023-02-06T10:11:02.890Z,15.45
2023-02-06T10:13:43.883Z,15.13
2023-02-06T10:16:30.497Z,15.40
2023-02-06T10:19:25.266Z,14.90
2023-02-06T10:22:10.193Z,14.60
2023-02-06T10:24:49.473Z,14.70
2023-02-06T10:27:22.324Z,14.33
2023-02-06T10:29:55.424Z,15.80
2023-02-06T10:32:35.785Z,14.18
2023-02-06T10:35:25.353Z,14.55
2023-02-06T10:38:23.793Z,13.05
2023-02-06T10:41:06.984Z,16.10
2023-02-06T10:43:53.949Z,17.35
2023-02-06T10:46:46.429Z,17.20
2023-02-06T10:49:28.244Z,16.65
2023-02-06T10:52:05.352Z,16.40
2023-02-06T10:54:46.630Z,14.73
2023-02-06T10:57:24.142Z,14.73
2023-02-06T11:00:02.599Z,17.35
2023-02-06T11:03:07.261Z,16.27
2023-02-06T11:05:35.287Z,12.82
2023-02-06T11:08:22.101Z,13.93
2023-02-06T11:10:56.297Z,14.38
2023-02-06T11:16:10.617Z,14.47
2023-02-06T11:18:47.672Z,12.70
2023-02-06T11:21:42.132Z,16.10
2023-02-06T11:24:17.396Z,13.72
2023-02-06T11:26:57.830Z,13.30
2023-02-06T11:29:39.560Z,13.72
2023-02-06T11:32:28.636Z,14.15
2023-02-06T11:35:06.688Z,16.35
2023-02-06T11:37:42.898Z,16.52
2023-02-06T11:40:26.274Z,17.92
2023-02-06T11:43:28.792Z,17.42
2023-02-06T11:46:17.917Z,18.98
2023-02-06T11:49:04.601Z,19.35
2023-02-06T11:51:51.920Z,16.70
2023-02-06T11:54:29.971Z,16.65
2023-02-06T11:57:20.207Z,15.72
2023-02-06T12:00:06.966Z,16.45
2023-02-06T12:02:42.920Z,17.55
2023-02-06T12:05:19.689Z,20.17
2023-02-06T12:07:57.878Z,18.60
2023-02-06T12:10:35.521Z,19.98
2023-02-06T12:13:18.814Z,17.48
2023-02-06T12:15:55.039Z,20.73
2023-02-06T12:18:35.358Z,20.10
2023-02-06T12:21:27.961Z,20.95
2023-02-06T12:24:08.584Z,18.80
2023-02-06T12:26:41.947Z,19.27
2023-02-06T12:29:27.851Z,19.47
2023-02-06T12:32:18.761Z,19.77
2023-02-06T12:35:17.190Z,19.20
2023-02-06T12:37:55.560Z,19.60
2023-02-06T12:40:51.304Z,19.73
2023-02-06T12:43:24.556Z,23.00
2023-02-06T12:46:11.978Z,18.25
2023-02-06T12:48:56.028Z,14.87
2023-02-06T12:51:36.909Z,17.48
2023-02-06T12:54:20.033Z,18.00
2023-02-06T12:57:14.971Z,17.50
2023-02-06T13:00:38.433Z,11.25
2023-02-06T13:03:32.727Z,10.45
2023-02-06T13:06:24.219Z,11.03
2023-02-06T13:09:06.221Z,10.45
2023-02-06T13:11:42.824Z,11.33
2023-02-06T13:14:28.424Z,11.95
2023-02-06T13:17:11.851Z,11.53
2023-02-06T13:19:49.515Z,12.65
2023-02-06T13:22:27.101Z,11.95
2023-02-06T13:24:59.994Z,11.53
2023-02-06T13:27:41.055Z,10.00
2023-02-06T13:30:37.095Z,9.58
2023-02-06T13:33:24.499Z,9.20
2023-02-06T13:36:10.696Z,12.53
2023-02-06T13:38:43.970Z,12.43
2023-02-06T13:41:20.593Z,13.13
2023-02-06T13:44:05.714Z,10.80
2023-02-06T13:46:58.239Z,12.05
2023-02-06T13:50:01.556Z,12.30
2023-02-06T13:52:54.071Z,10.82
2023-02-06T13:55:40.956Z,11.20
2023-02-06T13:58:33.477Z,11.45
2023-02-06T14:01:13.508Z,11.18
2023-02-06T14:03:50.333Z,19.35
2023-02-06T14:06:39.987Z,16.80
2023-02-06T14:09:44.503Z,17.65
2023-02-06T14:12:53.984Z,18.70
2023-02-06T14:15:58.506Z,19.25
2023-02-06T14:18:54.086Z,19.50
2023-02-06T14:21:52.419Z,18.50
2023-02-06T14:24:30.257Z,19.05
2023-02-06T14:27:31.326Z,20.20
2023-02-06T14:30:27.148Z,20.05
2023-02-06T14:33:10.515Z,20.62
2023-02-06T14:36:02.427Z,16.77
2023-02-06T14:39:22.242Z,20.27
2023-02-06T14:41:55.737Z,19.52
2023-02-06T14:44:31.828Z,22.65
2023-02-06T14:47:04.862Z,20.00
2023-02-06T14:49:39.567Z,21.00
2023-02-06T14:52:20.632Z,20.68
2023-02-06T14:54:53.826Z,20.77
2023-02-06T14:57:31.185Z,22.58
2023-02-06T15:00:20.140Z,23.90
2023-02-06T15:03:10.440Z,25.27
2023-02-06T15:05:43.204Z,23.95
2023-02-06T15:08:21.428Z,21.82
2023-02-06T15:11:03.979Z,23.02
2023-02-06T15:13:39.444Z,20.97
2023-02-06T15:16:12.265Z,21.07
2023-02-06T15:18:45.737Z,19.25
2023-02-06T15:21:21.339Z,16.70
2023-02-06T15:24:13.767Z,21.97
2023-02-06T15:27:12.397Z,22.00
2023-02-06T15:29:51.010Z,21.77
2023-02-06T15:32:38.025Z,21.97
2023-02-06T15:35:35.918Z,21.25
2023-02-06T15:38:14.739Z,24.63
2023-02-06T15:40:51.525Z,25.40
2023-02-06T15:43:26.683Z,18.98
2023-02-06T15:46:02.934Z,15.98
2023-02-06T15:48:52.334Z,12.63
2023-02-06T15:51:32.266Z,17.20
2023-02-06T15:54:21.254Z,14.20
2023-02-06T15:57:19.582Z,15.08
2023-02-06T15:59:53.604Z,14.55
2023-02-06T16:02:36.378Z,13.95
2023-02-06T16:05:10.341Z,13.83
2023-02-06T16:07:45.948Z,14.58
2023-02-06T16:10:27.547Z,14.25
2023-02-06T16:13:03.567Z,14.45
2023-02-06T16:15:40.935Z,15.65
2023-02-06T16:18:33.109Z,16.48
2023-02-06T16:21:25.623Z,16.07
2023-02-06T16:24:07.277Z,19.07
2023-02-06T16:26:52.549Z,19.48
2023-02-06T16:29:29.771Z,19.07
2023-02-06T16:32:06.649Z,21.75
2023-02-06T16:34:42.658Z,19.37
2023-02-06T16:37:19.363Z,19.23
2023-02-06T16:39:52.820Z,19.55
2023-02-06T16:42:34.708Z,19.35
2023-02-06T16:45:27.162Z,19.80
2023-02-06T16:47:59.774Z,19.15
2023-02-06T16:50:35.914Z,20.12
2023-02-06T16:53:18.742Z,20.55
2023-02-06T16:55:52.339Z,18.82
2023-02-06T16:58:28.028Z,18.77
2023-02-06T17:01:01.706Z,22.13
2023-02-06T17:03:37.989Z,21.95
2023-02-06T17:06:15.414Z,24.77
2023-02-06T17:08:48.302Z,30.97
2023-02-06T17:11:22.159Z,20.80
2023-02-06T17:13:54.908Z,20.82
2023-02-06T17:16:29.600Z,19.52
2023-02-06T17:19:02.491Z,20.88
2023-02-06T17:21:35.548Z,18.40
2023-02-06T17:24:08.808Z,17.82
2023-02-06T17:26:42.373Z,17.12
2023-02-06T17:29:16.419Z,15.72
2023-02-06T17:31:49.365Z,16.73
2023-02-06T17:34:23.629Z,17.23
2023-02-06T17:36:57.052Z,15.95
2023-02-06T17:39:30.386Z,19.30
2023-02-06T17:42:03.422Z,17.00
2023-02-06T17:44:36.788Z,20.48
2023-02-06T17:47:10.055Z,18.17
2023-02-06T17:49:42.874Z,17.82
2023-02-06T17:52:16.322Z,18.02
2023-02-06T17:54:49.089Z,18.55
2023-02-06T17:57:22.397Z,18.10
2023-02-06T17:59:55.834Z,17.37
2023-02-06T18:02:28.729Z,12.73
2023-02-06T18:05:01.772Z,15.75
2023-02-06T18:07:35.592Z,17.35
2023-02-06T18:10:10.113Z,17.57
2023-02-06T18:12:43.573Z,19.73
2023-02-06T18:15:17.908Z,18.05
2023-02-06T18:17:51.842Z,16.82
2023-02-06T18:20:25.163Z,16.87
2023-02-06T18:22:58.667Z,17.07
2023-02-06T18:25:31.484Z,17.55
2023-02-06T18:28:04.892Z,17.02
2023-02-06T18:30:38.274Z,17.35
2023-02-06T18:33:13.058Z,18.37
2023-02-06T18:35:46.946Z,19.25
2023-02-06T18:38:20.106Z,17.37
2023-02-06T18:40:53.674Z,16.70
2023-02-06T18:43:27.835Z,17.90
2023-02-06T18:46:02.267Z,19.40
2023-02-06T18:48:36.607Z,17.25
2023-02-06T18:53:41.897Z,17.30
2023-02-06T18:56:14.828Z,17.80
2023-02-06T18:58:48.012Z,17.17
2023-02-06T19:01:24.384Z,16.73
2023-02-06T19:03:58.644Z,17.37
2023-02-06T19:06:35.365Z,16.57
2023-02-06T19:09:09.462Z,16.45
2023-02-06T19:11:43.893Z,20.30
2023-02-06T19:14:20.699Z,19.95
2023-02-06T19:16:55.248Z,20.30
2023-02-06T19:19:28.187Z,19.20
2023-02-06T19:22:01.468Z,20.15
2023-02-06T19:27:07.285Z,19.92
2023-02-06T19:29:41.042Z,17.63
2023-02-06T19:32:14.687Z,19.87
2023-02-06T19:34:47.895Z,19.70
2023-02-06T19:37:22.444Z,21.62
2023-02-06T19:39:57.366Z,19.27
2023-02-06T19:42:30.355Z,21.17
2023-02-06T19:45:05.388Z,27.05
2023-02-06T19:47:39.821Z,21.82
2023-02-06T19:52:48.310Z,21.35
2023-02-06T19:55:22.576Z,22.95
2023-02-06T19:57:56.924Z,24.02
2023-02-06T20:00:31.315Z,21.97
2023-02-06T20:03:05.761Z,20.68
2023-02-06T20:05:40.588Z,20.68
2023-02-06T20:08:16.007Z,21.55
2023-02-06T20:10:50.557Z,21.05
2023-02-06T20:13:25.010Z,19.35
2023-02-06T20:16:00.788Z,18.37
2023-02-06T20:18:37.287Z,20.20
2023-02-06T20:21:28.057Z,18.57
2023-02-06T20:24:06.944Z,18.90
2023-02-06T20:26:43.376Z,18.42
2023-02-06T20:29:27.707Z,17.20
2023-02-06T20:32:02.251Z,18.23
2023-02-06T20:34:37.263Z,19.80
2023-02-06T20:37:11.092Z,16.17
2023-02-06T20:42:19.601Z,17.50
2023-02-06T20:44:53.723Z,16.00
2023-02-06T20:47:27.616Z,16.70
2023-02-06T20:52:36.948Z,19.57
2023-02-06T20:55:11.052Z,18.92
2023-02-06T20:57:45.262Z,19.32
2023-02-06T21:00:20.805Z,20.17
2023-02-06T21:02:54.909Z,19.42
2023-02-06T21:08:01.946Z,18.95
2023-02-06T21:10:36.763Z,18.67
2023-02-06T21:13:10.715Z,18.35
2023-02-06T21:15:46.802Z,24.50
2023-02-06T21:18:22.509Z,23.02
2023-02-06T21:20:58.291Z,21.40
2023-02-06T21:23:32.051Z,21.15
2023-02-06T21:26:07.168Z,20.15
2023-02-06T21:28:42.106Z,17.00
2023-02-06T21:31:27.686Z,18.15
2023-02-06T21:34:06.202Z,17.60
2023-02-06T21:36:42.201Z,19.32
2023-02-06T21:39:22.626Z,20.75
2023-02-06T21:41:57.421Z,22.32
2023-02-06T21:44:32.001Z,22.30
2023-02-06T21:47:06.284Z,26.68
2023-02-06T21:49:40.426Z,21.17
2023-02-06T21:52:14.488Z,20.77
2023-02-06T21:57:22.000Z,18.42
2023-02-06T21:59:57.286Z,18.67
2023-02-06T22:02:31.696Z,19.55
2023-02-06T22:07:40.891Z,20.08
2023-02-06T22:10:15.484Z,19.52
2023-02-06T22:12:53.176Z,18.10
2023-02-06T22:15:27.207Z,18.27
2023-02-06T22:18:02.016Z,19.55
2023-02-06T22:20:36.309Z,19.75
2023-02-06T22:25:48.874Z,15.88
2023-02-06T22:28:23.046Z,18.25
2023-02-06T22:30:56.850Z,18.20
2023-02-06T22:33:30.709Z,17.10
2023-02-06T22:36:15.206Z,16.90
2023-02-06T22:38:51.691Z,17.15
2023-02-06T22:41:25.549Z,17.42
2023-02-06T22:43:59.777Z,16.48
2023-02-06T22:46:38.925Z,18.40
2023-02-06T22:49:13.822Z,16.27
2023-02-06T22:51:48.486Z,18.15
2023-02-06T22:54:22.518Z,18.42
2023-02-06T22:56:57.568Z,18.98
2023-02-06T22:59:31.527Z,18.73
2023-02-06T23:02:05.493Z,18.77
2023-02-06T23:04:40.983Z,17.48
2023-02-06T23:07:15.446Z,20.17
2023-02-06T23:09:49.754Z,17.55
2023-02-06T23:12:23.601Z,18.30
2023-02-06T23:14:58.349Z,17.98
2023-02-06T23:17:32.139Z,17.35
2023-02-06T23:22:41.014Z,18.52
2023-02-06T23:25:15.033Z,16.82
2023-02-06T23:27:49.737Z,18.92
2023-02-06T23:30:24.150Z,16.82
2023-02-06T23:32:58.666Z,17.00
2023-02-06T23:35:34.358Z,18.20
2023-02-06T23:38:09.147Z,15.83
2023-02-06T23:40:43.176Z,15.98
2023-02-06T23:43:17.293Z,16.65
2023-02-06T23:45:51.399Z,16.73
2023-02-06T23:48:25.431Z,15.78
2023-02-06T23:50:59.910Z,17.30
2023-02-06T23:53:34.416Z,16.60
2023-02-06T23:56:29.309Z,17.75
2023-02-06T23:59:04.997Z,18.42
